Terminal Aerodrome Forecast
Issued by NWS

Home | Current Version | Previous Version | Text Only | Print | Product List | Glossary On
Versions: 1 2 3 4 5 6 7 8 9 10 11 12 13 14 15 16 17 18 19 20 21 22 23 24 25 26 27
000
FTUS41 KBUF 231500 AAA
TAFJHW
TAF AMD
KJHW 231520Z 2315/2412 24008KT 6SM -SHRA VCTS BKN040CB
     FM231700 29008KT P6SM BKN035
     FM232000 33008KT P6SM BKN025
     FM240600 01005KT P6SM BKN020
     FM241100 02007KT P6SM BKN035
      AMD LTD TO CLD VIS AND WIND=

USA.gov is the U.S. government's official web portal to all federal, state and local government web resources and services.